createdAt,value
2022-11-07T00:01:34.769Z,23.52
2022-11-07T00:06:20.094Z,8.52
2022-11-07T00:11:06.101Z,10.00
2022-11-07T00:15:54.012Z,10.38
2022-11-07T00:20:39.383Z,8.07
2022-11-07T00:25:24.632Z,9.32
2022-11-07T00:30:10.491Z,8.55
2022-11-07T00:34:58.371Z,8.75
2022-11-07T00:39:43.376Z,9.80
2022-11-07T00:44:28.687Z,8.70
2022-11-07T00:49:13.922Z,8.30
2022-11-07T00:54:01.836Z,10.50
2022-11-07T00:58:46.962Z,8.35
2022-11-07T01:03:44.603Z,9.93
2022-11-07T01:08:30.203Z,10.30
2022-11-07T01:13:18.084Z,11.48
2022-11-07T01:18:03.130Z,10.88
2022-11-07T01:22:49.835Z,11.25
2022-11-07T01:27:34.835Z,10.18
2022-11-07T01:32:22.973Z,10.63
2022-11-07T01:37:08.107Z,10.23
2022-11-07T01:41:53.380Z,10.02
2022-11-07T01:46:40.261Z,9.90
2022-11-07T01:51:29.125Z,9.70
2022-11-07T01:56:19.121Z,9.15
2022-11-07T02:01:04.781Z,9.35
2022-11-07T02:05:55.279Z,9.25
2022-11-07T02:10:45.369Z,8.80
2022-11-07T02:15:30.670Z,9.38
2022-11-07T02:20:16.586Z,7.75
2022-11-07T02:25:07.640Z,8.10
2022-11-07T02:29:56.496Z,7.40
2022-11-07T02:34:41.820Z,7.63
2022-11-07T02:39:27.530Z,6.90
2022-11-07T02:44:16.016Z,6.63
2022-11-07T02:49:03.761Z,7.25
2022-11-07T02:53:49.371Z,6.20
2022-11-07T02:58:35.077Z,5.55
2022-11-07T03:03:22.767Z,6.15
2022-11-07T03:08:08.568Z,5.50
2022-11-07T03:12:53.581Z,5.68
2022-11-07T03:17:38.899Z,5.47
2022-11-07T03:22:26.539Z,5.28
2022-11-07T03:27:11.901Z,5.07
2022-11-07T03:31:56.903Z,5.68
2022-11-07T03:36:42.300Z,4.88
2022-11-07T03:41:30.008Z,4.18
2022-11-07T03:46:15.476Z,4.03
2022-11-07T03:51:00.457Z,4.93
2022-11-07T03:55:45.903Z,4.20
2022-11-07T04:00:33.544Z,4.20
2022-11-07T04:05:18.957Z,3.63
2022-11-07T04:10:03.951Z,4.38
2022-11-07T04:15:01.589Z,3.53
2022-11-07T04:19:49.943Z,5.63
2022-11-07T04:24:35.194Z,3.78
2022-11-07T04:29:20.171Z,3.58
2022-11-07T04:34:05.423Z,3.78
2022-11-07T04:38:53.031Z,3.58
2022-11-07T04:43:38.283Z,3.20
2022-11-07T04:48:23.322Z,3.33
2022-11-07T04:53:08.594Z,2.92
2022-11-07T04:57:56.523Z,3.55
2022-11-07T05:02:41.981Z,3.50
2022-11-07T05:07:27.065Z,3.42
2022-11-07T05:12:12.392Z,3.95
2022-11-07T05:17:00.571Z,3.97
2022-11-07T05:21:45.923Z,4.00
2022-11-07T05:26:30.921Z,5.05
2022-11-07T05:31:19.510Z,4.60
2022-11-07T05:36:16.216Z,5.22
2022-11-07T05:41:05.794Z,4.93
2022-11-07T05:45:52.579Z,4.93
2022-11-07T05:50:38.325Z,5.43
2022-11-07T05:55:27.131Z,5.63
2022-11-07T06:00:13.755Z,5.50
2022-11-07T06:04:59.762Z,5.72
2022-11-07T06:09:44.734Z,5.82
2022-11-07T06:14:32.593Z,6.45
2022-11-07T06:19:17.603Z,7.07
2022-11-07T06:24:03.562Z,6.60
2022-11-07T06:28:48.633Z,8.02
2022-11-07T06:33:36.561Z,9.85
2022-11-07T06:38:21.742Z,9.82
2022-11-07T06:43:10.606Z,9.95
2022-11-07T06:47:58.292Z,11.13
2022-11-07T06:52:45.892Z,11.57
2022-11-07T06:57:31.862Z,12.48
2022-11-07T07:02:30.864Z,11.50
2022-11-07T07:07:22.280Z,12.90
2022-11-07T07:12:10.623Z,14.15
2022-11-07T07:16:58.933Z,13.00
2022-11-07T07:21:43.936Z,13.02
2022-11-07T07:26:29.376Z,13.80
2022-11-07T07:31:25.183Z,11.57
2022-11-07T07:36:15.289Z,11.57
2022-11-07T07:41:03.494Z,11.25
2022-11-07T07:45:48.733Z,9.60
2022-11-07T07:50:36.378Z,10.35
2022-11-07T07:55:21.648Z,9.55
2022-11-07T08:00:07.453Z,8.60
2022-11-07T08:04:53.022Z,8.15
2022-11-07T08:09:40.665Z,7.22
2022-11-07T08:14:25.931Z,8.05
2022-11-07T08:19:10.902Z,7.15
2022-11-07T08:23:56.793Z,6.15
2022-11-07T08:28:44.450Z,6.50
2022-11-07T08:33:30.406Z,6.55
2022-11-07T08:38:15.614Z,8.05
2022-11-07T08:43:04.003Z,6.18
2022-11-07T08:47:51.633Z,5.57
2022-11-07T08:52:37.874Z,5.20
2022-11-07T08:57:22.888Z,4.90
2022-11-07T09:02:57.260Z,4.22
2022-11-07T09:07:16.128Z,5.60
2022-11-07T09:12:01.091Z,5.07
2022-11-07T09:16:46.371Z,5.10
2022-11-07T09:21:31.364Z,4.88
2022-11-07T09:26:19.240Z,3.72
2022-11-07T09:31:06.388Z,3.80
2022-11-07T09:35:51.688Z,4.00
2022-11-07T09:40:47.323Z,3.10
2022-11-07T09:45:42.011Z,3.25
2022-11-07T09:50:32.680Z,2.70
2022-11-07T09:55:21.830Z,2.78
2022-11-07T10:00:11.321Z,2.53
2022-11-07T10:05:01.599Z,2.90
2022-11-07T10:09:57.008Z,2.25
2022-11-07T10:14:53.325Z,2.10
2022-11-07T10:19:51.855Z,2.00
2022-11-07T10:24:55.673Z,1.98
2022-11-07T10:29:48.081Z,1.70
2022-11-07T10:34:37.956Z,1.92
2022-11-07T10:39:23.305Z,1.92
2022-11-07T10:49:16.131Z,1.65
2022-11-07T10:54:01.374Z,1.85
2022-11-07T10:58:49.211Z,1.90
2022-11-07T11:03:45.461Z,1.80
2022-11-07T11:08:32.680Z,1.50
2022-11-07T11:13:38.606Z,1.70
2022-11-07T11:18:24.108Z,1.92
2022-11-07T11:23:21.331Z,1.80
2022-11-07T11:28:12.484Z,2.00
2022-11-07T11:33:05.333Z,1.83
2022-11-07T11:37:58.129Z,1.77
2022-11-07T11:42:52.785Z,2.20
2022-11-07T11:47:44.964Z,1.65
2022-11-07T11:57:21.473Z,1.73
2022-11-07T12:02:29.645Z,1.80
2022-11-07T12:07:36.547Z,2.20
2022-11-07T12:12:30.727Z,1.65
2022-11-07T12:17:25.947Z,1.60
2022-11-07T12:22:19.752Z,5.35
2022-11-07T12:27:15.858Z,1.98
2022-11-07T12:32:15.917Z,1.90
2022-11-07T12:37:22.704Z,1.80
2022-11-07T12:42:11.580Z,1.60
2022-11-07T12:46:59.687Z,1.60
2022-11-07T12:52:00.322Z,1.58
2022-11-07T12:56:50.269Z,1.70
2022-11-07T13:01:44.476Z,1.80
2022-11-07T13:06:36.609Z,1.70
2022-11-07T13:11:27.358Z,1.30
2022-11-07T13:16:26.689Z,1.67
2022-11-07T13:21:11.986Z,1.50
2022-11-07T13:26:04.205Z,1.23
2022-11-07T13:31:06.674Z,1.50
2022-11-07T13:35:59.813Z,1.60
2022-11-07T13:40:50.013Z,1.27
2022-11-07T13:45:40.697Z,1.50
2022-11-07T13:50:37.000Z,1.55
2022-11-07T13:55:29.104Z,1.80
2022-11-07T14:05:21.058Z,1.42
2022-11-07T14:10:09.574Z,1.33
2022-11-07T14:14:59.901Z,1.17
2022-11-07T14:19:45.156Z,1.30
2022-11-07T14:24:32.817Z,1.13
2022-11-07T14:29:24.792Z,1.30
2022-11-07T14:34:23.556Z,1.30
2022-11-07T14:39:15.388Z,1.50
2022-11-07T14:44:05.248Z,1.20
2022-11-07T14:48:52.054Z,1.40
2022-11-07T14:53:54.338Z,1.45
2022-11-07T14:58:39.841Z,1.10
2022-11-07T15:03:27.037Z,1.23
2022-11-07T15:08:28.272Z,1.17
2022-11-07T15:13:27.191Z,1.30
2022-11-07T15:18:29.520Z,1.20
2022-11-07T15:23:31.465Z,1.73
2022-11-07T15:33:13.469Z,1.70
2022-11-07T15:38:00.441Z,3.92
2022-11-07T15:42:45.551Z,1.30
2022-11-07T15:47:33.424Z,1.88
2022-11-07T15:52:18.627Z,1.90
2022-11-07T15:57:07.523Z,1.67
2022-11-07T16:01:52.556Z,1.70
2022-11-07T16:06:45.800Z,1.40
2022-11-07T16:11:31.147Z,1.83
2022-11-07T16:16:22.710Z,2.03
2022-11-07T16:21:08.335Z,2.10
2022-11-07T16:25:56.192Z,1.92
2022-11-07T16:30:41.273Z,2.20
2022-11-07T16:35:26.612Z,3.60
2022-11-07T16:40:16.378Z,11.10
2022-11-07T16:45:04.487Z,6.10
2022-11-07T16:49:53.534Z,3.45
2022-11-07T16:54:41.169Z,2.80
2022-11-07T16:59:27.419Z,3.78
2022-11-07T17:04:15.312Z,3.28
2022-11-07T17:09:08.785Z,4.85
2022-11-07T17:13:55.939Z,8.57
2022-11-07T17:18:40.902Z,22.42
2022-11-07T17:23:31.106Z,11.60
2022-11-07T17:28:16.237Z,6.00
2022-11-07T17:33:03.557Z,7.22
2022-11-07T17:37:48.557Z,8.90
2022-11-07T17:42:38.260Z,9.40
2022-11-07T17:47:31.402Z,11.52
2022-11-07T17:52:16.368Z,12.30
2022-11-07T17:57:03.783Z,13.85
2022-11-07T18:01:51.795Z,9.75
2022-11-07T18:06:38.682Z,4.30
2022-11-07T18:11:25.500Z,2.88
2022-11-07T18:16:11.528Z,3.55
2022-11-07T18:21:00.033Z,4.32
2022-11-07T18:25:45.344Z,3.50
2022-11-07T18:30:30.394Z,9.75
2022-11-07T18:35:15.700Z,5.22
2022-11-07T18:40:03.624Z,3.70
2022-11-07T18:44:48.740Z,5.13
2022-11-07T18:49:34.112Z,5.97
2022-11-07T18:54:19.167Z,4.90
2022-11-07T18:59:07.108Z,3.90
2022-11-07T19:03:52.080Z,4.95
2022-11-07T19:08:38.803Z,5.65
2022-11-07T19:13:23.810Z,6.55
2022-11-07T19:18:11.726Z,3.38
2022-11-07T19:22:56.835Z,3.05
2022-11-07T19:27:42.576Z,3.67
2022-11-07T19:32:27.881Z,3.42
2022-11-07T19:37:15.490Z,2.42
2022-11-07T19:42:01.044Z,2.08
2022-11-07T19:46:46.345Z,2.38
2022-11-07T19:51:31.632Z,2.17
2022-11-07T19:56:19.294Z,2.42
2022-11-07T20:01:13.522Z,2.50
2022-11-07T20:05:58.640Z,3.28
2022-11-07T20:10:48.499Z,2.72
2022-11-07T20:15:36.356Z,2.67
2022-11-07T20:20:21.440Z,3.15
2022-11-07T20:25:07.256Z,2.70
2022-11-07T20:29:52.304Z,2.90
2022-11-07T20:34:40.195Z,2.38
2022-11-07T20:39:25.196Z,2.50
2022-11-07T20:44:11.523Z,2.30
2022-11-07T20:48:56.576Z,2.67
2022-11-07T20:53:50.063Z,2.67
2022-11-07T20:58:36.371Z,3.72
2022-11-07T21:03:21.367Z,2.40
2022-11-07T21:08:09.788Z,2.70
2022-11-07T21:12:57.388Z,2.15
2022-11-07T21:17:42.725Z,3.50
2022-11-07T21:22:29.565Z,4.40
2022-11-07T21:27:15.186Z,3.65
2022-11-07T21:32:03.048Z,2.97
2022-11-07T21:36:48.148Z,3.03
2022-11-07T21:41:34.144Z,3.70
2022-11-07T21:46:21.333Z,2.63
2022-11-07T21:51:16.448Z,2.80
2022-11-07T21:56:02.480Z,2.60
2022-11-07T22:00:47.817Z,2.92
2022-11-07T22:05:32.839Z,3.45
2022-11-07T22:10:21.062Z,2.55
2022-11-07T22:15:06.652Z,3.30
2022-11-07T22:19:52.670Z,4.40
2022-11-07T22:24:37.696Z,4.25
2022-11-07T22:29:26.027Z,3.28
2022-11-07T22:34:11.005Z,2.58
2022-11-07T22:38:58.353Z,3.20
2022-11-07T22:43:43.722Z,3.30
2022-11-07T22:48:31.664Z,3.50
2022-11-07T22:53:16.816Z,2.97
2022-11-07T22:58:02.749Z,3.50
2022-11-07T23:02:47.928Z,2.72
2022-11-07T23:07:35.998Z,3.20
2022-11-07T23:12:21.002Z,2.97
2022-11-07T23:17:06.941Z,3.05
2022-11-07T23:21:52.402Z,2.92
2022-11-07T23:26:42.977Z,3.08
2022-11-07T23:31:28.193Z,3.50
2022-11-07T23:36:15.562Z,3.67
2022-11-07T23:41:03.426Z,3.60
2022-11-07T23:46:03.704Z,3.50
2022-11-07T23:51:01.340Z,3.45
2022-11-07T23:55:46.344Z,3.45
